sensor_id;sensor_type;location;lat;lon;timestamp;P1;durP1;ratioP1;P2;durP2;ratioP2
62362;SDS011;48396;48.426;1.500;2023-03-13T00:02:16;9.93;;;4.20;;
62362;SDS011;48396;48.426;1.500;2023-03-13T00:04:41;12.00;;;4.25;;
62362;SDS011;48396;48.426;1.500;2023-03-13T00:07:07;15.65;;;4.40;;
62362;SDS011;48396;48.426;1.500;2023-03-13T00:09:34;9.57;;;4.10;;
62362;SDS011;48396;48.426;1.500;2023-03-13T00:11:59;12.63;;;4.45;;
62362;SDS011;48396;48.426;1.500;2023-03-13T00:14:25;14.43;;;4.38;;
62362;SDS011;48396;48.426;1.500;2023-03-13T00:16:51;14.55;;;4.63;;
62362;SDS011;48396;48.426;1.500;2023-03-13T00:19:17;18.90;;;5.05;;
62362;SDS011;48396;48.426;1.500;2023-03-13T00:21:43;15.82;;;5.07;;
62362;SDS011;48396;48.426;1.500;2023-03-13T00:24:09;17.45;;;5.35;;
62362;SDS011;48396;48.426;1.500;2023-03-13T00:26:36;14.75;;;4.80;;
62362;SDS011;48396;48.426;1.500;2023-03-13T00:29:02;13.13;;;4.95;;
62362;SDS011;48396;48.426;1.500;2023-03-13T00:31:28;16.38;;;4.75;;
62362;SDS011;48396;48.426;1.500;2023-03-13T00:33:59;16.60;;;5.07;;
62362;SDS011;48396;48.426;1.500;2023-03-13T00:36:27;14.82;;;5.30;;
62362;SDS011;48396;48.426;1.500;2023-03-13T00:38:54;13.77;;;4.53;;
62362;SDS011;48396;48.426;1.500;2023-03-13T00:41:25;15.25;;;4.97;;
62362;SDS011;48396;48.426;1.500;2023-03-13T00:43:55;14.63;;;4.97;;
62362;SDS011;48396;48.426;1.500;2023-03-13T00:46:22;14.57;;;4.55;;
62362;SDS011;48396;48.426;1.500;2023-03-13T00:48:49;12.13;;;4.53;;
62362;SDS011;48396;48.426;1.500;2023-03-13T00:51:17;11.90;;;4.57;;
62362;SDS011;48396;48.426;1.500;2023-03-13T00:53:44;18.40;;;4.90;;
62362;SDS011;48396;48.426;1.500;2023-03-13T00:56:14;17.65;;;4.68;;
62362;SDS011;48396;48.426;1.500;2023-03-13T00:58:42;14.50;;;4.57;;
62362;SDS011;48396;48.426;1.500;2023-03-13T01:01:13;14.95;;;4.63;;
62362;SDS011;48396;48.426;1.500;2023-03-13T01:03:40;14.18;;;4.85;;
62362;SDS011;48396;48.426;1.500;2023-03-13T01:06:09;10.82;;;4.65;;
62362;SDS011;48396;48.426;1.500;2023-03-13T01:08:37;15.93;;;4.60;;
62362;SDS011;48396;48.426;1.500;2023-03-13T01:11:05;16.75;;;5.25;;
62362;SDS011;48396;48.426;1.500;2023-03-13T01:13:33;15.18;;;4.65;;
62362;SDS011;48396;48.426;1.500;2023-03-13T01:16:01;15.50;;;5.15;;
62362;SDS011;48396;48.426;1.500;2023-03-13T01:18:32;14.00;;;4.50;;
62362;SDS011;48396;48.426;1.500;2023-03-13T01:21:00;14.82;;;4.43;;
62362;SDS011;48396;48.426;1.500;2023-03-13T01:23:27;13.75;;;4.60;;
62362;SDS011;48396;48.426;1.500;2023-03-13T01:25:53;14.48;;;4.93;;
62362;SDS011;48396;48.426;1.500;2023-03-13T01:28:20;11.23;;;4.28;;
62362;SDS011;48396;48.426;1.500;2023-03-13T01:30:46;12.23;;;4.53;;
62362;SDS011;48396;48.426;1.500;2023-03-13T01:33:12;14.80;;;4.03;;
62362;SDS011;48396;48.426;1.500;2023-03-13T01:35:38;12.35;;;4.53;;
62362;SDS011;48396;48.426;1.500;2023-03-13T01:38:04;14.23;;;5.13;;
62362;SDS011;48396;48.426;1.500;2023-03-13T01:40:30;11.80;;;4.47;;
62362;SDS011;48396;48.426;1.500;2023-03-13T01:42:56;11.20;;;4.05;;
62362;SDS011;48396;48.426;1.500;2023-03-13T01:48:15;13.15;;;4.63;;
62362;SDS011;48396;48.426;1.500;2023-03-13T01:50:42;14.77;;;4.88;;
62362;SDS011;48396;48.426;1.500;2023-03-13T01:53:07;13.00;;;4.43;;
62362;SDS011;48396;48.426;1.500;2023-03-13T01:55:33;10.98;;;4.43;;
62362;SDS011;48396;48.426;1.500;2023-03-13T01:57:59;13.52;;;4.78;;
62362;SDS011;48396;48.426;1.500;2023-03-13T02:00:26;17.35;;;5.20;;
62362;SDS011;48396;48.426;1.500;2023-03-13T02:02:57;18.38;;;5.03;;
62362;SDS011;48396;48.426;1.500;2023-03-13T02:05:27;13.38;;;4.68;;
62362;SDS011;48396;48.426;1.500;2023-03-13T02:10:27;10.55;;;4.30;;
62362;SDS011;48396;48.426;1.500;2023-03-13T02:12:55;12.93;;;4.72;;
62362;SDS011;48396;48.426;1.500;2023-03-13T02:15:22;15.00;;;4.53;;
62362;SDS011;48396;48.426;1.500;2023-03-13T02:17:50;19.92;;;5.70;;
62362;SDS011;48396;48.426;1.500;2023-03-13T02:20:17;16.80;;;5.00;;
62362;SDS011;48396;48.426;1.500;2023-03-13T02:25:33;18.47;;;5.47;;
62362;SDS011;48396;48.426;1.500;2023-03-13T02:28:12;12.82;;;4.93;;
62362;SDS011;48396;48.426;1.500;2023-03-13T02:30:44;14.25;;;4.50;;
62362;SDS011;48396;48.426;1.500;2023-03-13T02:33:12;13.38;;;5.05;;
62362;SDS011;48396;48.426;1.500;2023-03-13T02:35:39;18.88;;;4.90;;
62362;SDS011;48396;48.426;1.500;2023-03-13T02:38:07;14.65;;;4.95;;
62362;SDS011;48396;48.426;1.500;2023-03-13T02:40:37;17.40;;;5.07;;
62362;SDS011;48396;48.426;1.500;2023-03-13T02:43:08;14.82;;;4.93;;
62362;SDS011;48396;48.426;1.500;2023-03-13T02:45:38;16.83;;;5.45;;
62362;SDS011;48396;48.426;1.500;2023-03-13T02:48:04;17.55;;;5.10;;
62362;SDS011;48396;48.426;1.500;2023-03-13T02:50:30;16.35;;;5.40;;
62362;SDS011;48396;48.426;1.500;2023-03-13T02:53:00;14.23;;;4.70;;
62362;SDS011;48396;48.426;1.500;2023-03-13T02:55:34;15.43;;;4.63;;
62362;SDS011;48396;48.426;1.500;2023-03-13T02:58:05;15.57;;;5.00;;
62362;SDS011;48396;48.426;1.500;2023-03-13T03:00:31;15.15;;;4.93;;
62362;SDS011;48396;48.426;1.500;2023-03-13T03:02:57;15.02;;;4.88;;
62362;SDS011;48396;48.426;1.500;2023-03-13T03:05:23;14.15;;;4.50;;
62362;SDS011;48396;48.426;1.500;2023-03-13T03:07:49;13.95;;;5.07;;
62362;SDS011;48396;48.426;1.500;2023-03-13T03:10:15;11.77;;;4.82;;
62362;SDS011;48396;48.426;1.500;2023-03-13T03:12:42;11.32;;;4.32;;
62362;SDS011;48396;48.426;1.500;2023-03-13T03:15:08;17.65;;;5.00;;
62362;SDS011;48396;48.426;1.500;2023-03-13T03:17:35;13.10;;;4.78;;
62362;SDS011;48396;48.426;1.500;2023-03-13T03:20:03;16.85;;;4.85;;
62362;SDS011;48396;48.426;1.500;2023-03-13T03:22:36;15.98;;;4.63;;
62362;SDS011;48396;48.426;1.500;2023-03-13T03:25:03;13.98;;;4.75;;
62362;SDS011;48396;48.426;1.500;2023-03-13T03:27:30;17.38;;;5.45;;
62362;SDS011;48396;48.426;1.500;2023-03-13T03:29:56;13.45;;;4.63;;
62362;SDS011;48396;48.426;1.500;2023-03-13T03:32:22;12.60;;;4.82;;
62362;SDS011;48396;48.426;1.500;2023-03-13T03:34:48;13.40;;;4.75;;
62362;SDS011;48396;48.426;1.500;2023-03-13T03:37:13;16.35;;;4.88;;
62362;SDS011;48396;48.426;1.500;2023-03-13T03:39:39;16.52;;;5.03;;
62362;SDS011;48396;48.426;1.500;2023-03-13T03:42:05;13.27;;;4.75;;
62362;SDS011;48396;48.426;1.500;2023-03-13T03:44:31;13.68;;;4.57;;
62362;SDS011;48396;48.426;1.500;2023-03-13T03:46:56;15.40;;;4.63;;
62362;SDS011;48396;48.426;1.500;2023-03-13T03:49:22;15.77;;;4.63;;
62362;SDS011;48396;48.426;1.500;2023-03-13T03:51:48;16.65;;;5.00;;
62362;SDS011;48396;48.426;1.500;2023-03-13T03:54:14;15.23;;;4.20;;
62362;SDS011;48396;48.426;1.500;2023-03-13T03:56:39;14.27;;;4.88;;
62362;SDS011;48396;48.426;1.500;2023-03-13T03:59:05;13.38;;;4.47;;
62362;SDS011;48396;48.426;1.500;2023-03-13T04:01:31;12.43;;;4.55;;
62362;SDS011;48396;48.426;1.500;2023-03-13T04:03:56;14.00;;;4.30;;
62362;SDS011;48396;48.426;1.500;2023-03-13T04:06:22;14.05;;;4.38;;
62362;SDS011;48396;48.426;1.500;2023-03-13T04:08:48;13.40;;;4.72;;
62362;SDS011;48396;48.426;1.500;2023-03-13T04:11:13;15.88;;;4.90;;
62362;SDS011;48396;48.426;1.500;2023-03-13T04:13:39;18.65;;;5.38;;
62362;SDS011;48396;48.426;1.500;2023-03-13T04:16:06;12.80;;;4.75;;
62362;SDS011;48396;48.426;1.500;2023-03-13T04:18:32;15.25;;;5.05;;
62362;SDS011;48396;48.426;1.500;2023-03-13T04:21:02;15.23;;;5.28;;
62362;SDS011;48396;48.426;1.500;2023-03-13T04:23:29;11.45;;;5.00;;
62362;SDS011;48396;48.426;1.500;2023-03-13T04:25:54;14.52;;;4.72;;
62362;SDS011;48396;48.426;1.500;2023-03-13T04:28:20;15.45;;;4.90;;
62362;SDS011;48396;48.426;1.500;2023-03-13T04:30:46;16.92;;;5.25;;
62362;SDS011;48396;48.426;1.500;2023-03-13T04:33:12;17.40;;;5.38;;
62362;SDS011;48396;48.426;1.500;2023-03-13T04:35:37;17.25;;;5.20;;
62362;SDS011;48396;48.426;1.500;2023-03-13T04:38:03;12.23;;;5.05;;
62362;SDS011;48396;48.426;1.500;2023-03-13T04:40:29;13.70;;;5.00;;
62362;SDS011;48396;48.426;1.500;2023-03-13T04:42:55;11.57;;;4.88;;
62362;SDS011;48396;48.426;1.500;2023-03-13T04:45:20;14.32;;;5.10;;
62362;SDS011;48396;48.426;1.500;2023-03-13T04:47:46;13.05;;;5.05;;
62362;SDS011;48396;48.426;1.500;2023-03-13T04:50:12;16.83;;;5.22;;
62362;SDS011;48396;48.426;1.500;2023-03-13T04:52:38;14.68;;;5.40;;
62362;SDS011;48396;48.426;1.500;2023-03-13T04:55:03;15.48;;;5.15;;
62362;SDS011;48396;48.426;1.500;2023-03-13T04:57:30;10.88;;;4.50;;
62362;SDS011;48396;48.426;1.500;2023-03-13T04:59:55;15.98;;;5.32;;
62362;SDS011;48396;48.426;1.500;2023-03-13T05:02:21;11.95;;;5.20;;
62362;SDS011;48396;48.426;1.500;2023-03-13T05:04:47;11.55;;;4.50;;
62362;SDS011;48396;48.426;1.500;2023-03-13T05:07:13;14.80;;;5.00;;
62362;SDS011;48396;48.426;1.500;2023-03-13T05:09:38;13.05;;;5.25;;
62362;SDS011;48396;48.426;1.500;2023-03-13T05:12:04;12.50;;;4.55;;
62362;SDS011;48396;48.426;1.500;2023-03-13T05:14:30;14.50;;;5.13;;
62362;SDS011;48396;48.426;1.500;2023-03-13T05:16:56;13.98;;;4.85;;
62362;SDS011;48396;48.426;1.500;2023-03-13T05:19:21;11.40;;;4.65;;
62362;SDS011;48396;48.426;1.500;2023-03-13T05:21:47;12.60;;;4.97;;
62362;SDS011;48396;48.426;1.500;2023-03-13T05:24:13;13.45;;;5.18;;
62362;SDS011;48396;48.426;1.500;2023-03-13T05:26:39;13.85;;;4.65;;
62362;SDS011;48396;48.426;1.500;2023-03-13T05:29:04;11.18;;;4.70;;
62362;SDS011;48396;48.426;1.500;2023-03-13T05:31:30;14.73;;;5.38;;
62362;SDS011;48396;48.426;1.500;2023-03-13T05:33:56;14.38;;;4.70;;
62362;SDS011;48396;48.426;1.500;2023-03-13T05:36:22;10.70;;;4.80;;
62362;SDS011;48396;48.426;1.500;2023-03-13T05:38:48;16.08;;;5.30;;
62362;SDS011;48396;48.426;1.500;2023-03-13T05:41:14;12.57;;;5.15;;
62362;SDS011;48396;48.426;1.500;2023-03-13T05:43:40;15.20;;;5.03;;
62362;SDS011;48396;48.426;1.500;2023-03-13T05:46:05;12.88;;;5.05;;
62362;SDS011;48396;48.426;1.500;2023-03-13T05:48:31;12.27;;;5.15;;
62362;SDS011;48396;48.426;1.500;2023-03-13T05:50:57;14.73;;;5.35;;
62362;SDS011;48396;48.426;1.500;2023-03-13T05:53:23;11.10;;;4.90;;
62362;SDS011;48396;48.426;1.500;2023-03-13T05:55:48;13.02;;;5.47;;
62362;SDS011;48396;48.426;1.500;2023-03-13T05:58:14;13.00;;;4.93;;
62362;SDS011;48396;48.426;1.500;2023-03-13T06:00:40;13.13;;;4.97;;
62362;SDS011;48396;48.426;1.500;2023-03-13T06:03:07;12.82;;;4.72;;
62362;SDS011;48396;48.426;1.500;2023-03-13T06:05:33;11.07;;;4.85;;
62362;SDS011;48396;48.426;1.500;2023-03-13T06:07:59;13.45;;;4.82;;
62362;SDS011;48396;48.426;1.500;2023-03-13T06:10:27;12.38;;;5.13;;
62362;SDS011;48396;48.426;1.500;2023-03-13T06:12:53;12.65;;;4.78;;
62362;SDS011;48396;48.426;1.500;2023-03-13T06:15:20;8.52;;;4.57;;
62362;SDS011;48396;48.426;1.500;2023-03-13T06:17:46;13.82;;;5.03;;
62362;SDS011;48396;48.426;1.500;2023-03-13T06:20:12;13.40;;;4.65;;
62362;SDS011;48396;48.426;1.500;2023-03-13T06:22:38;12.88;;;5.10;;
62362;SDS011;48396;48.426;1.500;2023-03-13T06:25:04;15.02;;;4.68;;
62362;SDS011;48396;48.426;1.500;2023-03-13T06:27:30;11.93;;;5.18;;
62362;SDS011;48396;48.426;1.500;2023-03-13T06:29:56;10.82;;;5.05;;
62362;SDS011;48396;48.426;1.500;2023-03-13T06:32:22;11.15;;;4.57;;
62362;SDS011;48396;48.426;1.500;2023-03-13T06:34:48;11.07;;;4.85;;
62362;SDS011;48396;48.426;1.500;2023-03-13T06:37:13;10.80;;;4.70;;
62362;SDS011;48396;48.426;1.500;2023-03-13T06:39:39;12.52;;;4.82;;
62362;SDS011;48396;48.426;1.500;2023-03-13T06:42:05;10.57;;;4.60;;
62362;SDS011;48396;48.426;1.500;2023-03-13T06:44:31;9.95;;;4.68;;
62362;SDS011;48396;48.426;1.500;2023-03-13T06:46:57;10.48;;;5.13;;
62362;SDS011;48396;48.426;1.500;2023-03-13T06:49:22;10.07;;;4.88;;
62362;SDS011;48396;48.426;1.500;2023-03-13T06:51:48;10.90;;;4.80;;
62362;SDS011;48396;48.426;1.500;2023-03-13T06:54:14;10.05;;;4.57;;
62362;SDS011;48396;48.426;1.500;2023-03-13T06:56:40;12.48;;;4.65;;
62362;SDS011;48396;48.426;1.500;2023-03-13T06:59:05;11.93;;;5.10;;
62362;SDS011;48396;48.426;1.500;2023-03-13T07:01:31;12.15;;;5.40;;
62362;SDS011;48396;48.426;1.500;2023-03-13T07:03:57;14.05;;;5.68;;
62362;SDS011;48396;48.426;1.500;2023-03-13T07:06:23;12.85;;;5.53;;
62362;SDS011;48396;48.426;1.500;2023-03-13T07:08:48;13.20;;;4.80;;
62362;SDS011;48396;48.426;1.500;2023-03-13T07:11:14;10.18;;;4.80;;
62362;SDS011;48396;48.426;1.500;2023-03-13T07:13:40;11.15;;;4.72;;
62362;SDS011;48396;48.426;1.500;2023-03-13T07:16:08;11.90;;;4.88;;
62362;SDS011;48396;48.426;1.500;2023-03-13T07:18:35;11.82;;;4.80;;
62362;SDS011;48396;48.426;1.500;2023-03-13T07:21:02;12.68;;;5.60;;
62362;SDS011;48396;48.426;1.500;2023-03-13T07:23:32;10.40;;;4.88;;
62362;SDS011;48396;48.426;1.500;2023-03-13T07:26:02;9.98;;;4.90;;
62362;SDS011;48396;48.426;1.500;2023-03-13T07:28:29;11.93;;;5.30;;
62362;SDS011;48396;48.426;1.500;2023-03-13T07:31:17;9.35;;;5.13;;
62362;SDS011;48396;48.426;1.500;2023-03-13T07:33:45;11.82;;;4.90;;
62362;SDS011;48396;48.426;1.500;2023-03-13T07:36:12;10.98;;;4.55;;
62362;SDS011;48396;48.426;1.500;2023-03-13T07:38:39;8.20;;;4.50;;
62362;SDS011;48396;48.426;1.500;2023-03-13T07:41:05;13.10;;;4.82;;
62362;SDS011;48396;48.426;1.500;2023-03-13T07:43:31;11.02;;;4.78;;
62362;SDS011;48396;48.426;1.500;2023-03-13T07:48:28;13.02;;;4.50;;
62362;SDS011;48396;48.426;1.500;2023-03-13T07:50:56;8.77;;;4.65;;
62362;SDS011;48396;48.426;1.500;2023-03-13T07:53:22;15.82;;;5.03;;
62362;SDS011;48396;48.426;1.500;2023-03-13T07:55:55;11.80;;;5.35;;
62362;SDS011;48396;48.426;1.500;2023-03-13T07:58:23;8.70;;;4.60;;
62362;SDS011;48396;48.426;1.500;2023-03-13T08:00:50;10.40;;;5.03;;
62362;SDS011;48396;48.426;1.500;2023-03-13T08:03:16;9.27;;;4.32;;
62362;SDS011;48396;48.426;1.500;2023-03-13T08:05:42;10.85;;;4.78;;
62362;SDS011;48396;48.426;1.500;2023-03-13T08:08:08;14.07;;;5.32;;
62362;SDS011;48396;48.426;1.500;2023-03-13T08:10:33;9.70;;;4.80;;
62362;SDS011;48396;48.426;1.500;2023-03-13T08:13:00;11.68;;;5.03;;
62362;SDS011;48396;48.426;1.500;2023-03-13T08:15:25;11.55;;;5.07;;
62362;SDS011;48396;48.426;1.500;2023-03-13T08:17:52;14.82;;;5.40;;
62362;SDS011;48396;48.426;1.500;2023-03-13T08:20:19;11.02;;;4.80;;
62362;SDS011;48396;48.426;1.500;2023-03-13T08:22:45;12.98;;;4.93;;
62362;SDS011;48396;48.426;1.500;2023-03-13T08:25:14;10.98;;;4.90;;
62362;SDS011;48396;48.426;1.500;2023-03-13T08:27:41;11.60;;;5.00;;
62362;SDS011;48396;48.426;1.500;2023-03-13T08:30:08;12.13;;;4.70;;
62362;SDS011;48396;48.426;1.500;2023-03-13T08:32:34;11.98;;;5.30;;
62362;SDS011;48396;48.426;1.500;2023-03-13T08:35:01;9.25;;;5.15;;
62362;SDS011;48396;48.426;1.500;2023-03-13T08:37:27;10.98;;;5.05;;
62362;SDS011;48396;48.426;1.500;2023-03-13T08:39:53;13.18;;;5.45;;
62362;SDS011;48396;48.426;1.500;2023-03-13T08:42:21;11.75;;;5.15;;
62362;SDS011;48396;48.426;1.500;2023-03-13T08:44:47;10.77;;;5.15;;
62362;SDS011;48396;48.426;1.500;2023-03-13T08:47:13;12.00;;;5.57;;
62362;SDS011;48396;48.426;1.500;2023-03-13T08:49:39;10.20;;;4.75;;
62362;SDS011;48396;48.426;1.500;2023-03-13T08:52:05;8.48;;;4.50;;
62362;SDS011;48396;48.426;1.500;2023-03-13T08:54:31;11.02;;;4.55;;
62362;SDS011;48396;48.426;1.500;2023-03-13T08:56:57;11.60;;;5.07;;
62362;SDS011;48396;48.426;1.500;2023-03-13T08:59:26;10.50;;;4.70;;
62362;SDS011;48396;48.426;1.500;2023-03-13T09:01:52;8.68;;;4.72;;
62362;SDS011;48396;48.426;1.500;2023-03-13T09:04:17;11.05;;;4.70;;
62362;SDS011;48396;48.426;1.500;2023-03-13T09:06:44;9.57;;;4.55;;
62362;SDS011;48396;48.426;1.500;2023-03-13T09:09:10;10.20;;;4.70;;
62362;SDS011;48396;48.426;1.500;2023-03-13T09:11:37;11.15;;;4.60;;
62362;SDS011;48396;48.426;1.500;2023-03-13T09:14:03;9.35;;;4.32;;
62362;SDS011;48396;48.426;1.500;2023-03-13T09:16:30;9.70;;;4.50;;
62362;SDS011;48396;48.426;1.500;2023-03-13T09:18:57;7.63;;;3.83;;
62362;SDS011;48396;48.426;1.500;2023-03-13T09:21:24;7.60;;;3.90;;
62362;SDS011;48396;48.426;1.500;2023-03-13T09:23:54;8.40;;;3.97;;
62362;SDS011;48396;48.426;1.500;2023-03-13T09:26:20;8.07;;;3.80;;
62362;SDS011;48396;48.426;1.500;2023-03-13T09:28:46;7.18;;;3.17;;
62362;SDS011;48396;48.426;1.500;2023-03-13T09:31:13;6.63;;;2.92;;
62362;SDS011;48396;48.426;1.500;2023-03-13T09:36:11;9.15;;;3.58;;
62362;SDS011;48396;48.426;1.500;2023-03-13T09:38:37;8.38;;;3.53;;
62362;SDS011;48396;48.426;1.500;2023-03-13T09:46:36;6.40;;;3.03;;
62362;SDS011;48396;48.426;1.500;2023-03-13T09:51:55;8.20;;;3.20;;
62362;SDS011;48396;48.426;1.500;2023-03-13T09:55:02;8.52;;;3.20;;
62362;SDS011;48396;48.426;1.500;2023-03-13T10:00:24;8.40;;;2.97;;
62362;SDS011;48396;48.426;1.500;2023-03-13T10:02:55;9.38;;;3.40;;
62362;SDS011;48396;48.426;1.500;2023-03-13T10:08:32;6.88;;;2.70;;
62362;SDS011;48396;48.426;1.500;2023-03-13T10:13:53;4.05;;;2.70;;
62362;SDS011;48396;48.426;1.500;2023-03-13T10:16:42;6.13;;;2.75;;
62362;SDS011;48396;48.426;1.500;2023-03-13T10:19:18;5.93;;;3.00;;
62362;SDS011;48396;48.426;1.500;2023-03-13T10:21:56;9.32;;;3.25;;
62362;SDS011;48396;48.426;1.500;2023-03-13T10:24:32;11.13;;;2.90;;
62362;SDS011;48396;48.426;1.500;2023-03-13T10:27:02;7.22;;;3.40;;
62362;SDS011;48396;48.426;1.500;2023-03-13T10:29:28;8.93;;;3.55;;
62362;SDS011;48396;48.426;1.500;2023-03-13T10:32:02;9.05;;;3.22;;
62362;SDS011;48396;48.426;1.500;2023-03-13T10:37:30;12.77;;;3.75;;
62362;SDS011;48396;48.426;1.500;2023-03-13T10:40:18;8.77;;;3.28;;
62362;SDS011;48396;48.426;1.500;2023-03-13T10:42:53;11.05;;;3.15;;
62362;SDS011;48396;48.426;1.500;2023-03-13T10:45:35;10.40;;;3.00;;
62362;SDS011;48396;48.426;1.500;2023-03-13T10:48:03;8.35;;;3.13;;
62362;SDS011;48396;48.426;1.500;2023-03-13T10:50:52;8.57;;;2.88;;
62362;SDS011;48396;48.426;1.500;2023-03-13T10:53:22;12.30;;;3.30;;
62362;SDS011;48396;48.426;1.500;2023-03-13T10:58:41;9.20;;;3.20;;
62362;SDS011;48396;48.426;1.500;2023-03-13T11:01:16;14.38;;;3.30;;
62362;SDS011;48396;48.426;1.500;2023-03-13T11:03:43;6.78;;;2.65;;
62362;SDS011;48396;48.426;1.500;2023-03-13T11:06:31;14.93;;;3.33;;
62362;SDS011;48396;48.426;1.500;2023-03-13T11:14:15;13.50;;;3.40;;
62362;SDS011;48396;48.426;1.500;2023-03-13T11:16:48;10.93;;;2.80;;
62362;SDS011;48396;48.426;1.500;2023-03-13T11:24:41;10.80;;;3.50;;
62362;SDS011;48396;48.426;1.500;2023-03-13T11:36:17;14.25;;;3.72;;
62362;SDS011;48396;48.426;1.500;2023-03-13T11:58:02;11.77;;;3.38;;
62362;SDS011;48396;48.426;1.500;2023-03-13T12:00:39;13.18;;;3.58;;
62362;SDS011;48396;48.426;1.500;2023-03-13T12:05:53;10.13;;;3.58;;
62362;SDS011;48396;48.426;1.500;2023-03-13T12:11:12;12.80;;;3.45;;
62362;SDS011;48396;48.426;1.500;2023-03-13T12:13:59;15.35;;;3.40;;
62362;SDS011;48396;48.426;1.500;2023-03-13T12:19:07;15.20;;;3.75;;
62362;SDS011;48396;48.426;1.500;2023-03-13T12:21:44;12.55;;;3.30;;
62362;SDS011;48396;48.426;1.500;2023-03-13T12:24:28;16.08;;;3.30;;
62362;SDS011;48396;48.426;1.500;2023-03-13T12:27:09;10.93;;;3.47;;
62362;SDS011;48396;48.426;1.500;2023-03-13T12:35:21;9.90;;;2.95;;
62362;SDS011;48396;48.426;1.500;2023-03-13T12:38:00;7.38;;;2.72;;
62362;SDS011;48396;48.426;1.500;2023-03-13T12:40:47;14.20;;;3.05;;
62362;SDS011;48396;48.426;1.500;2023-03-13T12:43:32;12.07;;;3.10;;
62362;SDS011;48396;48.426;1.500;2023-03-13T12:56:32;7.72;;;2.63;;
62362;SDS011;48396;48.426;1.500;2023-03-13T12:59:20;11.05;;;3.03;;
62362;SDS011;48396;48.426;1.500;2023-03-13T13:01:56;9.63;;;2.90;;
62362;SDS011;48396;48.426;1.500;2023-03-13T13:04:27;10.20;;;2.53;;
62362;SDS011;48396;48.426;1.500;2023-03-13T13:12:19;7.97;;;2.55;;
62362;SDS011;48396;48.426;1.500;2023-03-13T13:19:45;5.85;;;2.17;;
62362;SDS011;48396;48.426;1.500;2023-03-13T13:32:43;9.33;;;2.33;;
62362;SDS011;48396;48.426;1.500;2023-03-13T13:43:46;12.82;;;2.63;;
62362;SDS011;48396;48.426;1.500;2023-03-13T13:51:38;6.47;;;2.28;;
62362;SDS011;48396;48.426;1.500;2023-03-13T13:56:44;9.32;;;2.60;;
62362;SDS011;48396;48.426;1.500;2023-03-13T14:04:38;8.52;;;2.20;;
62362;SDS011;48396;48.426;1.500;2023-03-13T14:07:11;6.95;;;1.85;;
62362;SDS011;48396;48.426;1.500;2023-03-13T14:12:47;9.00;;;2.13;;
62362;SDS011;48396;48.426;1.500;2023-03-13T14:15:18;8.35;;;2.20;;
62362;SDS011;48396;48.426;1.500;2023-03-13T14:20:28;7.45;;;2.22;;
62362;SDS011;48396;48.426;1.500;2023-03-13T14:23:01;5.18;;;1.90;;
62362;SDS011;48396;48.426;1.500;2023-03-13T14:28:42;11.13;;;2.08;;
62362;SDS011;48396;48.426;1.500;2023-03-13T14:31:02;6.40;;;2.20;;
62362;SDS011;48396;48.426;1.500;2023-03-13T14:33:28;8.43;;;2.05;;
62362;SDS011;48396;48.426;1.500;2023-03-13T14:35:54;7.03;;;2.08;;
62362;SDS011;48396;48.426;1.500;2023-03-13T14:38:22;6.22;;;2.20;;
62362;SDS011;48396;48.426;1.500;2023-03-13T14:40:50;7.82;;;2.17;;
62362;SDS011;48396;48.426;1.500;2023-03-13T14:43:19;5.63;;;2.30;;
62362;SDS011;48396;48.426;1.500;2023-03-13T14:45:58;9.68;;;2.45;;
62362;SDS011;48396;48.426;1.500;2023-03-13T14:48:28;9.25;;;2.40;;
62362;SDS011;48396;48.426;1.500;2023-03-13T14:51:02;7.38;;;2.38;;
62362;SDS011;48396;48.426;1.500;2023-03-13T14:53:32;8.35;;;2.38;;
62362;SDS011;48396;48.426;1.500;2023-03-13T14:56:08;7.82;;;2.25;;
62362;SDS011;48396;48.426;1.500;2023-03-13T14:58:36;6.10;;;2.30;;
62362;SDS011;48396;48.426;1.500;2023-03-13T15:01:10;9.48;;;2.53;;
62362;SDS011;48396;48.426;1.500;2023-03-13T15:03:43;6.15;;;1.80;;
62362;SDS011;48396;48.426;1.500;2023-03-13T15:08:38;5.63;;;1.98;;
62362;SDS011;48396;48.426;1.500;2023-03-13T15:13:44;4.97;;;2.03;;
62362;SDS011;48396;48.426;1.500;2023-03-13T15:16:14;11.05;;;2.50;;
62362;SDS011;48396;48.426;1.500;2023-03-13T15:18:44;9.73;;;2.63;;
62362;SDS011;48396;48.426;1.500;2023-03-13T15:23:37;6.57;;;2.20;;
62362;SDS011;48396;48.426;1.500;2023-03-13T15:26:03;3.95;;;1.63;;
62362;SDS011;48396;48.426;1.500;2023-03-13T15:28:30;6.32;;;2.15;;
62362;SDS011;48396;48.426;1.500;2023-03-13T15:30:56;7.72;;;2.42;;
62362;SDS011;48396;48.426;1.500;2023-03-13T15:33:23;4.65;;;2.08;;
62362;SDS011;48396;48.426;1.500;2023-03-13T15:35:52;7.97;;;2.60;;
62362;SDS011;48396;48.426;1.500;2023-03-13T15:38:21;8.88;;;2.50;;
62362;SDS011;48396;48.426;1.500;2023-03-13T15:40:49;6.90;;;2.50;;
62362;SDS011;48396;48.426;1.500;2023-03-13T15:43:16;5.90;;;2.20;;
62362;SDS011;48396;48.426;1.500;2023-03-13T15:45:44;10.68;;;2.60;;
62362;SDS011;48396;48.426;1.500;2023-03-13T15:48:15;6.90;;;2.03;;
62362;SDS011;48396;48.426;1.500;2023-03-13T15:50:48;10.38;;;2.75;;
62362;SDS011;48396;48.426;1.500;2023-03-13T15:53:19;6.35;;;1.75;;
62362;SDS011;48396;48.426;1.500;2023-03-13T15:55:49;3.60;;;1.88;;
62362;SDS011;48396;48.426;1.500;2023-03-13T15:58:16;8.68;;;2.15;;
62362;SDS011;48396;48.426;1.500;2023-03-13T16:00:42;5.03;;;1.73;;
62362;SDS011;48396;48.426;1.500;2023-03-13T16:03:13;7.35;;;2.22;;
62362;SDS011;48396;48.426;1.500;2023-03-13T16:05:47;9.15;;;2.55;;
62362;SDS011;48396;48.426;1.500;2023-03-13T16:08:17;9.57;;;2.28;;
62362;SDS011;48396;48.426;1.500;2023-03-13T16:10:51;7.05;;;2.03;;
62362;SDS011;48396;48.426;1.500;2023-03-13T16:13:17;9.20;;;2.38;;
62362;SDS011;48396;48.426;1.500;2023-03-13T16:15:44;6.47;;;2.25;;
62362;SDS011;48396;48.426;1.500;2023-03-13T16:18:20;8.10;;;2.45;;
62362;SDS011;48396;48.426;1.500;2023-03-13T16:20:48;6.80;;;2.28;;
62362;SDS011;48396;48.426;1.500;2023-03-13T16:23:14;6.85;;;2.17;;
62362;SDS011;48396;48.426;1.500;2023-03-13T16:25:41;7.72;;;2.63;;
62362;SDS011;48396;48.426;1.500;2023-03-13T16:28:10;9.65;;;2.45;;
62362;SDS011;48396;48.426;1.500;2023-03-13T16:30:37;11.93;;;2.83;;
62362;SDS011;48396;48.426;1.500;2023-03-13T16:33:13;8.50;;;2.95;;
62362;SDS011;48396;48.426;1.500;2023-03-13T16:35:39;9.32;;;3.05;;
62362;SDS011;48396;48.426;1.500;2023-03-13T16:38:05;11.32;;;3.00;;
62362;SDS011;48396;48.426;1.500;2023-03-13T16:40:33;15.70;;;3.10;;
62362;SDS011;48396;48.426;1.500;2023-03-13T16:42:59;9.45;;;2.95;;
62362;SDS011;48396;48.426;1.500;2023-03-13T16:45:25;13.23;;;2.97;;
62362;SDS011;48396;48.426;1.500;2023-03-13T16:47:51;13.27;;;3.35;;
62362;SDS011;48396;48.426;1.500;2023-03-13T16:53:00;11.05;;;2.60;;
62362;SDS011;48396;48.426;1.500;2023-03-13T16:55:26;14.07;;;2.65;;
62362;SDS011;48396;48.426;1.500;2023-03-13T16:58:01;6.93;;;2.78;;
62362;SDS011;48396;48.426;1.500;2023-03-13T17:00:28;10.65;;;2.70;;
62362;SDS011;48396;48.426;1.500;2023-03-13T17:02:56;11.85;;;2.65;;
62362;SDS011;48396;48.426;1.500;2023-03-13T17:05:22;11.75;;;2.83;;
62362;SDS011;48396;48.426;1.500;2023-03-13T17:07:49;11.93;;;2.75;;
62362;SDS011;48396;48.426;1.500;2023-03-13T17:10:20;17.30;;;3.20;;
62362;SDS011;48396;48.426;1.500;2023-03-13T17:12:49;13.40;;;2.53;;
62362;SDS011;48396;48.426;1.500;2023-03-13T17:15:15;12.80;;;2.72;;
62362;SDS011;48396;48.426;1.500;2023-03-13T17:17:42;11.30;;;2.65;;
62362;SDS011;48396;48.426;1.500;2023-03-13T17:20:13;15.05;;;2.83;;
62362;SDS011;48396;48.426;1.500;2023-03-13T17:22:41;8.95;;;2.40;;
62362;SDS011;48396;48.426;1.500;2023-03-13T17:25:08;9.63;;;2.65;;
62362;SDS011;48396;48.426;1.500;2023-03-13T17:27:34;14.85;;;3.05;;